Time;durP1;ratioP1;P1;durP2;ratioP2;P2;SDS_P1;SDS_P2;PMS_P1;PMS_P2;Temp;Humidity;BMP_temperature;BMP_pressure;BME280_temperature;BME280_humidity;BME280_pressure;Samples;Min_cycle;Max_cycle;Signal;HPM_P1;HPM_P2
2020/12/20 00:00:42;;;;;;;;;;;;;;;20.79;41.87;100709.59;3134977;27;115254;-61
2020/12/20 00:02:15;;;;;;;;;;;;;;;20.82;42.41;100714.56;3133077;27;114360;-59
2020/12/20 00:03:47;;;;;;;;;;;;;;;20.86;42.36;100709.16;3133858;27;115107;-60
2020/12/20 00:05:21;;;;;;;;;;;;;;;20.91;42.78;100705.38;3136076;27;114136;-60
2020/12/20 00:06:53;;;;;;;;;;;;;;;20.97;42.86;100709.75;3138394;27;114224;-60
2020/12/20 00:08:25;;;;;;;;;;;;;;;21.03;43.45;100712.09;3132996;27;117307;-60
2020/12/20 00:09:56;;;;;;;;;;;;;;;21.10;43.75;100703.25;3122028;27;115821;-60
2020/12/20 00:11:27;;;;;;;;;;;;;;;21.16;44.18;100708.47;3131787;27;115313;-62
2020/12/20 00:12:58;;;;;;;;;;;;;;;21.13;43.91;100708.25;3133870;27;115801;-60
2020/12/20 00:14:30;;;;;;;;;;;;;;;21.14;44.09;100715.53;3135101;27;115754;-61
2020/12/20 00:16:01;;;;;;;;;;;;;;;21.14;44.12;100707.09;3122108;27;115854;-61
2020/12/20 00:17:33;;;;;;;;;;;;;;;21.14;43.79;100712.72;3130464;27;115757;-61
2020/12/20 00:19:04;;;;;;;;;;;;;;;21.13;43.82;100709.06;3134037;27;114796;-61
2020/12/20 00:20:37;;;;;;;;;;;;;;;21.13;43.84;100719.47;3135382;27;114581;-60
2020/12/20 00:22:18;;;;;;;;;;;;;;;21.12;43.80;100718.63;3134623;27;114881;-60
2020/12/20 00:23:50;;;;;;;;;;;;;;;21.12;44.04;100727.03;3118324;27;115371;-58
2020/12/20 00:25:21;;;;;;;;;;;;;;;21.11;43.90;100722.59;3110769;27;114721;-61
2020/12/20 00:26:55;;;;;;;;;;;;;;;21.11;44.04;100707.72;3111951;27;115910;-59
2020/12/20 00:28:26;;;;;;;;;;;;;;;21.11;44.38;100716.16;3118351;27;115752;-60
2020/12/20 00:29:57;;;;;;;;;;;;;;;21.10;44.28;100706.88;3131212;27;114080;-61
2020/12/20 00:31:29;;;;;;;;;;;;;;;21.09;44.11;100701.56;3135361;27;114409;-60
2020/12/20 00:33:00;;;;;;;;;;;;;;;21.09;44.15;100716.47;3120616;27;114809;-60
2020/12/20 00:34:32;;;;;;;;;;;;;;;21.13;44.64;100700.66;3130586;27;114147;-61
2020/12/20 00:36:07;;;;;;;;;;;;;;;21.11;45.15;100702.94;3135123;27;113791;-59
2020/12/20 00:37:39;;;;;;;;;;;;;;;21.10;45.05;100704.06;3133765;27;115226;-59
2020/12/20 00:39:10;;;;;;;;;;;;;;;21.10;44.70;100714.47;3132529;27;114133;-57
2020/12/20 00:40:41;;;;;;;;;;;;;;;21.09;44.63;100707.19;3135373;27;113774;-58
2020/12/20 00:42:13;;;;;;;;;;;;;;;21.08;44.52;100702.72;3134861;27;114063;-59
2020/12/20 00:43:45;;;;;;;;;;;;;;;21.05;44.34;100701.38;3133760;27;114434;-57
2020/12/20 00:45:16;;;;;;;;;;;;;;;21.06;44.24;100703.06;3131442;27;114228;-58
2020/12/20 00:46:48;;;;;;;;;;;;;;;21.05;44.69;100709.81;3133928;27;113806;-59
2020/12/20 00:48:25;;;;;;;;;;;;;;;21.03;44.49;100703.66;3134459;27;114424;-57
2020/12/20 00:49:57;;;;;;;;;;;;;;;21.02;44.31;100704.00;3135566;27;113740;-57
2020/12/20 00:51:30;;;;;;;;;;;;;;;21.01;44.40;100705.97;3136944;27;114564;-57
2020/12/20 00:53:01;;;;;;;;;;;;;;;21.02;44.16;100701.19;3130372;27;116952;-57
2020/12/20 00:54:32;;;;;;;;;;;;;;;21.02;44.44;100706.81;3133009;27;115578;-57
2020/12/20 00:56:05;;;;;;;;;;;;;;;20.99;44.21;100702.66;3135002;27;114225;-57
2020/12/20 00:57:36;;;;;;;;;;;;;;;20.98;44.50;100703.81;3131356;27;115261;-57
2020/12/20 00:59:12;;;;;;;;;;;;;;;20.99;44.61;100710.25;3131307;27;114443;-57
2020/12/20 01:00:43;;;;;;;;;;;;;;;20.97;44.31;100715.38;3118615;27;114192;-58
2020/12/20 01:02:15;;;;;;;;;;;;;;;20.95;44.22;100712.03;3127493;27;116041;-57
2020/12/20 01:03:46;;;;;;;;;;;;;;;20.94;44.48;100716.00;3133863;27;115379;-57
2020/12/20 01:05:18;;;;;;;;;;;;;;;20.91;44.96;100706.22;3135176;27;116284;-57
2020/12/20 01:06:53;;;;;;;;;;;;;;;20.92;44.54;100705.06;3135171;27;114747;-56
2020/12/20 01:08:26;;;;;;;;;;;;;;;20.90;44.78;100714.94;3132472;27;115234;-57
2020/12/20 01:10:02;;;;;;;;;;;;;;;20.88;45.04;100712.47;3134872;27;116088;-56
2020/12/20 01:11:33;;;;;;;;;;;;;;;20.86;44.79;100706.34;3134646;27;116375;-56
2020/12/20 01:13:05;;;;;;;;;;;;;;;20.84;45.04;100711.47;3138153;27;115916;-56
2020/12/20 01:14:37;;;;;;;;;;;;;;;20.83;45.00;100701.38;3132458;27;114788;-58
2020/12/20 01:16:12;;;;;;;;;;;;;;;20.81;45.14;100709.25;3130023;27;115167;-58
2020/12/20 01:17:47;;;;;;;;;;;;;;;20.80;45.10;100707.63;3132167;27;114513;-57
2020/12/20 01:19:20;;;;;;;;;;;;;;;20.78;45.35;100721.13;3134615;27;114696;-58
2020/12/20 01:20:51;;;;;;;;;;;;;;;20.77;45.52;100714.69;3135916;27;115833;-58
2020/12/20 01:22:24;;;;;;;;;;;;;;;20.76;45.32;100715.00;3133979;27;115923;-58
2020/12/20 01:24:13;;;;;;;;;;;;;;;20.76;45.37;100718.63;3133937;27;116060;-57
2020/12/20 01:25:53;;;;;;;;;;;;;;;20.74;45.77;100720.94;3134481;27;114790;-58
2020/12/20 01:27:34;;;;;;;;;;;;;;;20.74;45.50;100714.50;3133311;27;115755;-57
2020/12/20 01:29:06;;;;;;;;;;;;;;;20.72;45.79;100720.41;3130878;27;115389;-56
2020/12/20 01:30:37;;;;;;;;;;;;;;;20.72;45.58;100722.38;3133603;27;115832;-56
2020/12/20 01:32:08;;;;;;;;;;;;;;;20.70;45.93;100716.28;3131846;27;116695;-56
2020/12/20 01:33:40;;;;;;;;;;;;;;;20.68;45.95;100708.16;3132547;27;115210;-56
2020/12/20 01:35:12;;;;;;;;;;;;;;;20.67;45.71;100708.50;3124777;27;115792;-56
2020/12/20 01:36:43;;;;;;;;;;;;;;;20.66;45.82;100713.28;3130489;27;114470;-57
2020/12/20 01:38:15;;;;;;;;;;;;;;;20.65;45.81;100710.78;3133116;27;114311;-58
2020/12/20 01:39:46;;;;;;;;;;;;;;;20.65;45.50;100713.56;3133910;27;113913;-58
2020/12/20 01:41:17;;;;;;;;;;;;;;;20.62;45.83;100712.25;3134884;27;114153;-57
2020/12/20 01:42:55;;;;;;;;;;;;;;;20.62;45.87;100712.25;3120514;27;114146;-56
2020/12/20 01:44:26;;;;;;;;;;;;;;;20.60;45.95;100708.91;3114446;27;114163;-56
2020/12/20 01:45:57;;;;;;;;;;;;;;;20.59;46.17;100710.03;3128088;27;114203;-56
2020/12/20 01:47:31;;;;;;;;;;;;;;;20.57;46.24;100712.34;3133868;27;114776;-56
2020/12/20 01:49:04;;;;;;;;;;;;;;;20.57;46.14;100703.94;3134091;27;114711;-56
2020/12/20 01:50:36;;;;;;;;;;;;;;;20.56;46.14;100704.22;3135465;27;113853;-56
2020/12/20 01:52:07;;;;;;;;;;;;;;;20.55;46.20;100716.59;3134992;27;114715;-57
2020/12/20 01:53:39;;;;;;;;;;;;;;;20.54;46.17;100715.75;3112926;27;114111;-56
2020/12/20 01:55:12;;;;;;;;;;;;;;;20.53;46.27;100716.09;3128381;27;113947;-57
2020/12/20 01:56:45;;;;;;;;;;;;;;;20.51;46.29;100721.19;3138586;27;113867;-57
2020/12/20 01:58:16;;;;;;;;;;;;;;;20.49;46.06;100727.09;3134164;27;114176;-57
2020/12/20 01:59:48;;;;;;;;;;;;;;;20.48;46.55;100731.06;3134575;27;115470;-58
2020/12/20 02:01:19;;;;;;;;;;;;;;;20.47;46.28;100732.22;3134962;27;114250;-57
2020/12/20 02:02:51;;;;;;;;;;;;;;;20.48;46.40;100733.03;3133354;27;114640;-58
2020/12/20 02:04:22;;;;;;;;;;;;;;;20.46;46.27;100727.75;3134169;27;116100;-57
2020/12/20 02:05:56;;;;;;;;;;;;;;;20.44;46.62;100721.63;3135615;27;116118;-58
2020/12/20 02:07:27;;;;;;;;;;;;;;;20.45;46.52;100737.28;3115619;27;114949;-57
2020/12/20 02:08:58;;;;;;;;;;;;;;;20.44;46.20;100734.81;3129085;27;115275;-57
2020/12/20 02:10:29;;;;;;;;;;;;;;;20.41;46.39;100734.28;3121228;27;115210;-57
2020/12/20 02:12:04;;;;;;;;;;;;;;;20.40;46.25;100745.81;3129935;27;114113;-57
2020/12/20 02:13:39;;;;;;;;;;;;;;;20.39;46.33;100744.19;3120104;27;114060;-56
2020/12/20 02:15:11;;;;;;;;;;;;;;;20.38;46.18;100731.28;3130931;27;114896;-57
2020/12/20 02:16:42;;;;;;;;;;;;;;;20.36;46.15;100740.00;3134533;27;115685;-57
2020/12/20 02:18:13;;;;;;;;;;;;;;;20.36;46.51;100744.78;3128603;27;115213;-57
2020/12/20 02:19:45;;;;;;;;;;;;;;;20.35;46.25;100743.16;3134347;27;115839;-57
2020/12/20 02:21:16;;;;;;;;;;;;;;;20.35;46.30;100745.94;3134597;27;115252;-57
2020/12/20 02:22:47;;;;;;;;;;;;;;;20.34;46.17;100750.72;3133599;27;115472;-57
2020/12/20 02:24:19;;;;;;;;;;;;;;;20.34;46.32;100747.91;3132210;27;114735;-57
2020/12/20 02:25:51;;;;;;;;;;;;;;;20.33;45.98;100751.88;3134443;27;115981;-58
2020/12/20 02:27:22;;;;;;;;;;;;;;;20.30;45.98;100752.50;3120192;27;117888;-57
2020/12/20 02:28:54;;;;;;;;;;;;;;;20.30;46.30;100755.31;3128965;27;114790;-57
2020/12/20 02:30:26;;;;;;;;;;;;;;;20.29;46.27;100747.16;3134497;27;114720;-57
2020/12/20 02:31:58;;;;;;;;;;;;;;;20.27;46.32;100755.88;3120188;27;114595;-57
2020/12/20 02:33:30;;;;;;;;;;;;;;;20.28;46.20;100753.91;3129974;27;116390;-56
2020/12/20 02:35:01;;;;;;;;;;;;;;;20.27;45.98;100743.81;3110417;27;115741;-57
2020/12/20 02:36:32;;;;;;;;;;;;;;;20.26;46.22;100744.97;3129235;27;115864;-57
2020/12/20 02:38:03;;;;;;;;;;;;;;;20.26;46.17;100744.97;3133496;27;115981;-56
2020/12/20 02:39:35;;;;;;;;;;;;;;;20.25;46.34;100749.75;3133084;27;115988;-57
2020/12/20 02:41:06;;;;;;;;;;;;;;;20.25;46.46;100752.56;3137338;27;115858;-56
2020/12/20 02:42:37;;;;;;;;;;;;;;;20.23;46.24;100754.00;3120406;27;114460;-57
2020/12/20 02:44:08;;;;;;;;;;;;;;;20.22;46.30;100749.53;3131131;27;114435;-57
2020/12/20 02:45:39;;;;;;;;;;;;;;;20.21;46.12;100748.72;3135838;27;114814;-57
2020/12/20 02:47:11;;;;;;;;;;;;;;;20.20;46.68;100749.03;3135391;27;113936;-56
2020/12/20 02:48:43;;;;;;;;;;;;;;;20.19;46.26;100752.97;3112501;27;114538;-57
2020/12/20 02:50:14;;;;;;;;;;;;;;;20.19;46.46;100751.00;3124554;27;114469;-57
2020/12/20 02:51:45;;;;;;;;;;;;;;;20.19;46.41;100756.59;3137059;27;114453;-56
2020/12/20 02:53:16;;;;;;;;;;;;;;;20.16;46.70;100751.63;3121267;27;114184;-57
2020/12/20 02:54:49;;;;;;;;;;;;;;;20.17;46.73;100753.25;3131752;27;114094;-57
2020/12/20 02:56:22;;;;;;;;;;;;;;;20.14;46.64;100753.06;3136661;27;113927;-57
2020/12/20 02:57:53;;;;;;;;;;;;;;;20.13;46.68;100759.81;3136852;27;113973;-56
2020/12/20 02:59:25;;;;;;;;;;;;;;;20.13;46.56;100757.00;3122458;27;114462;-56
2020/12/20 03:00:56;;;;;;;;;;;;;;;20.11;46.76;100746.13;3122003;27;114152;-57
2020/12/20 03:02:28;;;;;;;;;;;;;;;20.11;46.61;100751.72;3135404;27;114126;-57
2020/12/20 03:04:00;;;;;;;;;;;;;;;20.10;46.78;100754.81;3136065;27;115075;-59
2020/12/20 03:05:31;;;;;;;;;;;;;;;20.09;46.84;100747.53;3130505;27;113833;-61
2020/12/20 03:07:03;;;;;;;;;;;;;;;20.07;47.06;100752.66;3128039;27;114231;-60
2020/12/20 03:08:34;;;;;;;;;;;;;;;20.07;47.06;100752.66;3135355;27;114098;-59
2020/12/20 03:10:05;;;;;;;;;;;;;;;20.06;46.76;100746.22;3136971;27;115080;-59
2020/12/20 03:11:37;;;;;;;;;;;;;;;20.04;46.71;100744.84;3136957;27;114236;-60
2020/12/20 03:13:08;;;;;;;;;;;;;;;20.03;46.89;100749.66;3124008;27;115311;-60
2020/12/20 03:14:39;;;;;;;;;;;;;;;20.03;46.68;100748.81;3134734;27;114888;-60
2020/12/20 03:16:11;;;;;;;;;;;;;;;20.02;46.91;100750.78;3136199;27;115327;-60
2020/12/20 03:17:42;;;;;;;;;;;;;;;20.02;46.94;100753.59;3135477;27;114106;-60
2020/12/20 03:19:13;;;;;;;;;;;;;;;20.00;46.79;100753.03;3135383;27;115340;-60
2020/12/20 03:20:44;;;;;;;;;;;;;;;20.01;46.72;100754.72;3137190;27;115338;-65
2020/12/20 03:22:15;;;;;;;;;;;;;;;19.97;46.79;100760.13;3136489;27;115215;-60
2020/12/20 03:23:47;;;;;;;;;;;;;;;19.96;46.98;100761.25;3138461;27;114330;-60
2020/12/20 03:25:18;;;;;;;;;;;;;;;19.94;47.00;100755.09;3137013;27;115808;-60
2020/12/20 03:26:55;;;;;;;;;;;;;;;19.92;46.90;100754.59;3134658;27;115971;-60
2020/12/20 03:28:27;;;;;;;;;;;;;;;19.93;46.98;100755.44;3135268;27;115722;-59
2020/12/20 03:29:58;;;;;;;;;;;;;;;19.92;46.68;100765.81;3122172;27;115970;-60
2020/12/20 03:31:30;;;;;;;;;;;;;;;19.91;47.06;100766.13;3116974;27;116695;-59
2020/12/20 03:33:01;;;;;;;;;;;;;;;19.91;46.89;100766.13;3130017;27;114672;-61
2020/12/20 03:34:32;;;;;;;;;;;;;;;19.90;46.89;100768.09;3135810;27;115705;-59
2020/12/20 03:36:04;;;;;;;;;;;;;;;19.90;46.80;100767.25;3136685;27;116624;-60
2020/12/20 03:37:35;;;;;;;;;;;;;;;19.88;47.13;100775.16;3135930;27;115951;-60
2020/12/20 03:39:06;;;;;;;;;;;;;;;19.87;46.92;100763.09;3133573;27;115043;-60
2020/12/20 03:40:38;;;;;;;;;;;;;;;19.87;46.82;100768.72;3136469;27;114802;-59
2020/12/20 03:42:09;;;;;;;;;;;;;;;19.86;47.06;100764.25;3123103;27;114254;-59
2020/12/20 03:43:40;;;;;;;;;;;;;;;19.85;47.13;100770.19;3117517;27;115864;-60
2020/12/20 03:45:11;;;;;;;;;;;;;;;19.84;46.87;100768.50;3135101;27;116371;-60
2020/12/20 03:46:42;;;;;;;;;;;;;;;19.83;46.79;100767.66;3135512;27;114329;-60
2020/12/20 03:48:13;;;;;;;;;;;;;;;19.83;46.72;100756.44;3133959;27;114084;-59
2020/12/20 03:49:45;;;;;;;;;;;;;;;19.82;46.65;100763.19;3122599;27;113989;-59
2020/12/20 03:51:16;;;;;;;;;;;;;;;19.83;46.97;100766.84;3131915;27;114372;-59
2020/12/20 03:52:52;;;;;;;;;;;;;;;19.82;46.90;100766.00;3135219;27;114255;-59
2020/12/20 03:54:24;;;;;;;;;;;;;;;19.80;46.89;100765.50;3133868;27;114463;-59
2020/12/20 03:55:55;;;;;;;;;;;;;;;19.80;47.28;100771.09;3136805;27;114505;-56
2020/12/20 03:57:27;;;;;;;;;;;;;;;19.81;47.06;100760.69;3122181;27;114509;-56
2020/12/20 03:58:58;;;;;;;;;;;;;;;19.79;47.10;100762.97;3130601;27;113925;-56
2020/12/20 04:00:29;;;;;;;;;;;;;;;19.78;46.98;100767.75;3136455;27;114087;-56
2020/12/20 04:02:00;;;;;;;;;;;;;;;19.78;46.97;100773.38;3134175;27;114057;-56
2020/12/20 04:03:31;;;;;;;;;;;;;;;19.78;47.08;100767.75;3135188;27;114085;-56
2020/12/20 04:05:03;;;;;;;;;;;;;;;19.77;46.88;100773.66;3135996;27;114521;-57
2020/12/20 04:06:34;;;;;;;;;;;;;;;19.77;47.13;100768.88;3136051;27;114616;-55
2020/12/20 04:08:05;;;;;;;;;;;;;;;19.75;47.02;100767.53;3139078;27;114014;-56
2020/12/20 04:09:37;;;;;;;;;;;;;;;19.77;47.09;100768.88;3135268;27;116095;-55
2020/12/20 04:11:08;;;;;;;;;;;;;;;19.74;47.30;100761.09;3136169;27;114056;-56
2020/12/20 04:12:39;;;;;;;;;;;;;;;19.74;47.03;100763.91;3127649;27;114102;-55
2020/12/20 04:14:10;;;;;;;;;;;;;;;19.73;47.20;100769.81;3135271;27;115119;-56
2020/12/20 04:15:41;;;;;;;;;;;;;;;19.73;47.38;100755.78;3135712;27;114725;-56
2020/12/20 04:17:12;;;;;;;;;;;;;;;19.71;47.24;100769.31;3121222;27;115294;-56
2020/12/20 04:18:43;;;;;;;;;;;;;;;19.70;47.21;100768.47;3121069;27;115121;-55
2020/12/20 04:20:32;;;;;;;;;;;;;;;19.69;47.48;100777.19;3118254;27;115331;-57
2020/12/20 04:22:03;;;;;;;;;;;;;;;19.70;47.41;100782.47;3134227;27;115100;-59
2020/12/20 04:23:34;;;;;;;;;;;;;;;19.68;47.26;100790.34;3134388;27;115298;-59
2020/12/20 04:25:06;;;;;;;;;;;;;;;19.69;47.38;100778.00;3136207;27;115116;-59
2020/12/20 04:26:37;;;;;;;;;;;;;;;19.68;47.42;100776.34;3136160;27;115352;-60
2020/12/20 04:28:08;;;;;;;;;;;;;;;19.66;47.15;100778.63;3135218;27;116136;-59
2020/12/20 04:29:39;;;;;;;;;;;;;;;19.66;47.38;100781.44;3125100;27;115320;-60
2020/12/20 04:31:10;;;;;;;;;;;;;;;19.65;47.10;100779.78;3131579;27;115724;-59
2020/12/20 04:32:42;;;;;;;;;;;;;;;19.65;47.23;100779.78;3134221;27;114631;-60
2020/12/20 04:34:14;;;;;;;;;;;;;;;19.65;47.31;100778.94;3135041;27;114647;-59
2020/12/20 04:35:45;;;;;;;;;;;;;;;19.62;47.48;100783.19;3136424;27;115853;-60
2020/12/20 04:37:16;;;;;;;;;;;;;;;19.62;47.26;100788.78;3135705;27;115771;-59
2020/12/20 04:38:48;;;;;;;;;;;;;;;19.61;47.24;100773.13;3117080;27;114696;-60
2020/12/20 04:40:21;;;;;;;;;;;;;;;19.62;47.08;100785.16;3120217;27;115843;-60
2020/12/20 04:41:52;;;;;;;;;;;;;;;19.61;47.32;100780.69;3135420;27;114766;-60
2020/12/20 04:43:25;;;;;;;;;;;;;;;19.60;47.41;100782.66;3121362;27;116239;-60
2020/12/20 04:44:56;;;;;;;;;;;;;;;19.59;47.48;100780.97;3130026;27;115304;-61
2020/12/20 04:46:27;;;;;;;;;;;;;;;19.58;47.28;100775.69;3136056;27;115052;-60
2020/12/20 04:48:00;;;;;;;;;;;;;;;19.58;47.53;100786.91;3134670;27;115201;-60
2020/12/20 04:49:32;;;;;;;;;;;;;;;19.56;47.46;100786.38;3136344;27;115716;-59
2020/12/20 04:51:04;;;;;;;;;;;;;;;19.55;47.67;100788.34;3139314;27;115821;-59
2020/12/20 04:52:35;;;;;;;;;;;;;;;19.56;47.58;100797.59;3136113;27;113894;-59
2020/12/20 04:54:08;;;;;;;;;;;;;;;19.56;47.29;100809.63;3127260;27;114550;-60
2020/12/20 04:55:39;;;;;;;;;;;;;;;19.55;47.31;100805.16;3136235;27;113890;-60
2020/12/20 04:57:14;;;;;;;;;;;;;;;19.54;47.54;100845.53;3136025;27;114226;-60
2020/12/20 04:58:45;;;;;;;;;;;;;;;19.53;47.64;100843.88;3134763;27;114038;-60
2020/12/20 05:00:17;;;;;;;;;;;;;;;19.53;47.36;100849.47;3117241;27;114287;-60
2020/12/20 05:01:49;;;;;;;;;;;;;;;19.51;47.64;100860.16;3123726;27;114226;-61
2020/12/20 05:03:20;;;;;;;;;;;;;;;19.51;47.52;100866.59;3134977;27;114102;-61
2020/12/20 05:04:52;;;;;;;;;;;;;;;19.50;47.48;100875.28;3135400;27;114173;-61
2020/12/20 05:06:25;;;;;;;;;;;;;;;19.47;47.30;100884.31;3136202;27;114769;-61
2020/12/20 05:07:56;;;;;;;;;;;;;;;19.46;47.14;100875.06;3134461;27;116036;-61
2020/12/20 05:09:27;;;;;;;;;;;;;;;19.44;47.55;100879.31;3134740;27;113683;-60
2020/12/20 05:10:59;;;;;;;;;;;;;;;19.43;47.59;100874.81;3135796;27;113956;-60
2020/12/20 05:12:31;;;;;;;;;;;;;;;19.41;47.61;100863.91;3139301;27;114146;-60
2020/12/20 05:14:05;;;;;;;;;;;;;;;19.42;47.33;100862.78;3135211;27;115171;-60
2020/12/20 05:15:36;;;;;;;;;;;;;;;19.42;47.53;100856.34;3135189;27;114580;-60
2020/12/20 05:17:15;;;;;;;;;;;;;;;19.41;47.41;100849.88;3119572;27;115136;-60
2020/12/20 05:18:50;;;;;;;;;;;;;;;19.42;47.60;100847.94;3123669;27;115302;-61
2020/12/20 05:20:34;;;;;;;;;;;;;;;19.41;47.67;100846.25;3134599;27;114487;-60
2020/12/20 05:22:15;;;;;;;;;;;;;;;19.39;47.66;100852.19;3131681;27;114504;-60
2020/12/20 05:23:46;;;;;;;;;;;;;;;19.39;47.89;100851.34;3112708;27;114091;-60
2020/12/20 05:25:18;;;;;;;;;;;;;;;19.39;47.72;100854.97;3131675;27;115895;-60
2020/12/20 05:26:49;;;;;;;;;;;;;;;19.38;47.74;100849.66;3129938;27;115292;-60
2020/12/20 05:28:26;;;;;;;;;;;;;;;19.37;47.79;100856.41;3134162;27;114464;-57
2020/12/20 05:30:12;;;;;;;;;;;;;;;19.35;47.68;100855.88;3121005;27;115283;-57
2020/12/20 05:31:43;;;;;;;;;;;;;;;19.34;47.70;100848.63;3131369;27;115307;-57
2020/12/20 05:33:25;;;;;;;;;;;;;;;19.32;47.60;100843.31;3134609;27;115262;-56
2020/12/20 05:35:04;;;;;;;;;;;;;;;19.32;47.49;100839.66;3125665;27;115167;-56
2020/12/20 05:36:36;;;;;;;;;;;;;;;19.30;47.86;100845.59;3120195;27;115033;-56
2020/12/20 05:38:07;;;;;;;;;;;;;;;19.29;47.89;100849.53;3133041;27;116429;-56
2020/12/20 05:39:38;;;;;;;;;;;;;;;19.29;47.61;100843.09;3134751;27;115801;-57
2020/12/20 05:41:09;;;;;;;;;;;;;;;19.27;47.86;100843.38;3121624;27;114738;-56
2020/12/20 05:42:52;;;;;;;;;;;;;;;19.28;47.65;100847.84;3128418;27;114497;-57
2020/12/20 05:44:24;;;;;;;;;;;;;;;19.26;47.74;100843.69;3128678;27;114705;-57
2020/12/20 05:45:55;;;;;;;;;;;;;;;19.26;47.71;100833.31;3134689;27;114783;-56
2020/12/20 05:47:37;;;;;;;;;;;;;;;19.28;47.70;100839.44;3121081;27;115738;-57
2020/12/20 05:49:13;;;;;;;;;;;;;;;19.28;47.82;100838.63;3131513;27;115708;-57
2020/12/20 05:50:55;;;;;;;;;;;;;;;19.25;47.89;100848.47;3135613;27;116677;-57
2020/12/20 05:52:27;;;;;;;;;;;;;;;19.27;47.87;100839.75;3134451;27;115378;-56
2020/12/20 05:54:12;;;;;;;;;;;;;;;19.27;47.71;100840.56;3133810;27;116115;-57
2020/12/20 05:55:43;;;;;;;;;;;;;;;19.27;47.99;100834.13;3121889;27;115868;-56
2020/12/20 05:57:15;;;;;;;;;;;;;;;19.26;47.56;100844.50;3130416;27;114647;-61
2020/12/20 05:58:46;;;;;;;;;;;;;;;19.25;47.82;100833.63;3137307;27;114659;-60
2020/12/20 06:00:17;;;;;;;;;;;;;;;19.25;47.95;100842.03;3130329;27;114114;-60
2020/12/20 06:01:48;;;;;;;;;;;;;;;19.23;47.85;100842.31;3114072;27;113893;-60
2020/12/20 06:03:21;;;;;;;;;;;;;;;19.24;47.93;100843.16;3116547;27;114456;-61
2020/12/20 06:04:54;;;;;;;;;;;;;;;19.23;47.99;100835.88;3131174;27;114425;-60
2020/12/20 06:06:30;;;;;;;;;;;;;;;19.21;47.92;100836.22;3115622;27;114344;-61
2020/12/20 06:08:05;;;;;;;;;;;;;;;19.20;47.88;100839.28;3129691;27;114675;-60
2020/12/20 06:09:56;;;;;;;;;;;;;;;19.20;47.98;100834.53;3134551;27;113817;-60
2020/12/20 06:11:32;;;;;;;;;;;;;;;19.20;48.03;100842.09;3129590;27;114014;-61
2020/12/20 06:13:04;;;;;;;;;;;;;;;19.21;47.88;100838.16;3134347;27;114095;-60
2020/12/20 06:14:41;;;;;;;;;;;;;;;19.19;47.88;100841.25;3130866;27;115061;-60
2020/12/20 06:16:14;;;;;;;;;;;;;;;19.18;48.25;100835.94;3131351;27;113846;-64
2020/12/20 06:17:54;;;;;;;;;;;;;;;19.18;48.16;100828.38;3135866;27;114403;-62
2020/12/20 06:19:26;;;;;;;;;;;;;;;19.17;48.21;100831.50;3122877;27;114342;-59
2020/12/20 06:21:01;;;;;;;;;;;;;;;19.16;48.13;100825.06;3136655;27;116548;-60
2020/12/20 06:22:33;;;;;;;;;;;;;;;19.17;48.05;100825.91;3136849;27;114965;-60
2020/12/20 06:24:07;;;;;;;;;;;;;;;19.15;48.28;100823.41;3135637;27;115147;-57
2020/12/20 06:25:42;;;;;;;;;;;;;;;19.14;48.26;100826.50;3137452;27;115285;-57
2020/12/20 06:27:14;;;;;;;;;;;;;;;19.13;48.17;100836.03;3137012;27;114475;-57
2020/12/20 06:28:47;;;;;;;;;;;;;;;19.12;48.20;100831.56;3135457;27;114038;-56
2020/12/20 06:30:19;;;;;;;;;;;;;;;19.12;48.02;100843.63;3123183;27;115216;-57
2020/12/20 06:31:53;;;;;;;;;;;;;;;19.12;48.10;100834.38;3120131;27;115107;-58
2020/12/20 06:34:00;;;;;;;;;;;;;;;19.12;48.08;100842.78;3132459;27;115200;-59
2020/12/20 06:35:31;;;;;;;;;;;;;;;19.12;48.09;100851.19;3093478;28;115337;-59
2020/12/20 06:37:03;;;;;;;;;;;;;;;19.10;48.13;100852.31;3097849;27;115609;-58
2020/12/20 06:38:34;;;;;;;;;;;;;;;19.10;48.17;100846.72;3135178;27;115708;-57
2020/12/20 06:40:06;;;;;;;;;;;;;;;19.07;48.07;100847.31;3123249;27;114597;-58
2020/12/20 06:41:38;;;;;;;;;;;;;;;19.07;48.21;100860.50;3132272;27;115211;-58
2020/12/20 06:43:10;;;;;;;;;;;;;;;19.08;48.16;100859.31;3125959;27;114077;-58
2020/12/20 06:44:41;;;;;;;;;;;;;;;19.07;47.97;100857.69;3131471;27;114839;-58
2020/12/20 06:46:32;;;;;;;;;;;;;;;19.05;48.08;100854.34;3136882;27;114812;-58
2020/12/20 06:48:04;;;;;;;;;;;;;;;19.04;48.19;100861.91;3121624;27;115746;-58
2020/12/20 06:49:36;;;;;;;;;;;;;;;19.03;48.19;100860.22;3124725;27;115862;-58
2020/12/20 06:51:08;;;;;;;;;;;;;;;19.03;47.91;100865.81;3130979;27;114855;-58
2020/12/20 06:52:46;;;;;;;;;;;;;;;19.03;48.08;100867.81;3130121;27;114679;-58
2020/12/20 06:54:25;;;;;;;;;;;;;;;19.02;48.07;100866.16;3133218;27;114397;-58
2020/12/20 06:56:12;;;;;;;;;;;;;;;19.02;47.90;100877.34;3136610;27;115793;-56
2020/12/20 06:58:02;;;;;;;;;;;;;;;19.01;48.17;100884.06;3136611;27;117415;-56
2020/12/20 06:59:43;;;;;;;;;;;;;;;19.00;48.22;100874.84;3135580;27;116557;-56
2020/12/20 07:01:37;;;;;;;;;;;;;;;19.00;47.95;100876.81;3113568;27;114692;-57
2020/12/20 07:03:09;;;;;;;;;;;;;;;18.98;48.19;100877.13;3129539;27;115921;-57
2020/12/20 07:04:40;;;;;;;;;;;;;;;18.97;48.04;100869.84;3135792;27;115064;-56
2020/12/20 07:06:12;;;;;;;;;;;;;;;18.96;48.08;100873.78;3140375;27;115852;-56
2020/12/20 07:08:25;;;;;;;;;;;;;;;18.97;48.12;100875.44;3135521;27;113942;-56
2020/12/20 07:09:56;;;;;;;;;;;;;;;18.95;48.21;100880.50;3096202;27;114831;-56
2020/12/20 07:11:28;;;;;;;;;;;;;;;18.95;48.18;100888.06;3122620;27;113964;-57
2020/12/20 07:13:00;;;;;;;;;;;;;;;18.94;48.07;100886.41;3131380;27;114153;-57
2020/12/20 07:14:34;;;;;;;;;;;;;;;18.92;48.42;100895.09;3135708;27;114191;-57
2020/12/20 07:16:13;;;;;;;;;;;;;;;18.93;48.16;100885.59;3136277;27;113969;-57
2020/12/20 07:17:45;;;;;;;;;;;;;;;18.94;48.21;100887.22;3135380;27;114677;-57
2020/12/20 07:19:20;;;;;;;;;;;;;;;18.93;48.11;100884.75;3133803;27;114278;-57
2020/12/20 07:20:51;;;;;;;;;;;;;;;18.93;48.15;100891.19;3137078;27;113888;-57
2020/12/20 07:22:27;;;;;;;;;;;;;;;18.92;48.14;100889.50;3122541;27;114013;-57
2020/12/20 07:24:04;;;;;;;;;;;;;;;18.91;48.19;100890.63;3130479;27;114378;-58
2020/12/20 07:25:36;;;;;;;;;;;;;;;18.91;48.22;100889.78;3136568;27;114165;-58
2020/12/20 07:27:07;;;;;;;;;;;;;;;18.91;48.21;100893.44;3136372;27;113745;-57
2020/12/20 07:28:38;;;;;;;;;;;;;;;18.90;48.15;100888.13;3134573;27;113864;-57
2020/12/20 07:30:12;;;;;;;;;;;;;;;18.89;48.24;100887.31;3140132;27;114907;-57
2020/12/20 07:31:44;;;;;;;;;;;;;;;18.89;48.17;100889.28;3135485;27;115292;-58
2020/12/20 07:33:16;;;;;;;;;;;;;;;18.88;48.24;100887.59;3135021;27;115539;-57
2020/12/20 07:34:48;;;;;;;;;;;;;;;18.88;48.13;100891.25;3122344;27;114061;-57
2020/12/20 07:36:20;;;;;;;;;;;;;;;18.88;48.28;100898.81;3132120;27;114778;-57
2020/12/20 07:37:52;;;;;;;;;;;;;;;18.87;48.20;100897.97;3135695;27;113923;-58
2020/12/20 07:39:24;;;;;;;;;;;;;;;18.85;48.27;100897.41;3132225;27;115309;-57
2020/12/20 07:40:56;;;;;;;;;;;;;;;18.86;48.31;100903.84;3122394;27;115316;-57
2020/12/20 07:42:29;;;;;;;;;;;;;;;18.86;48.44;100895.47;3131128;27;114416;-57
2020/12/20 07:44:05;;;;;;;;;;;;;;;18.85;48.56;100905.00;3120018;27;114051;-57
2020/12/20 07:45:36;;;;;;;;;;;;;;;18.83;48.58;100901.66;3125815;27;114355;-57
2020/12/20 07:47:11;;;;;;;;;;;;;;;18.83;48.45;100902.50;3134885;27;114206;-56
2020/12/20 07:48:43;;;;;;;;;;;;;;;18.83;48.39;100907.25;3135415;27;115441;-57
2020/12/20 07:50:20;;;;;;;;;;;;;;;18.81;48.44;100913.16;3130562;27;114799;-56
2020/12/20 07:51:52;;;;;;;;;;;;;;;18.81;48.45;100904.75;3140051;27;115656;-56
2020/12/20 07:53:24;;;;;;;;;;;;;;;18.80;48.41;100902.25;3120588;27;115784;-56